Jabez, Kentucky
Current Conditions -  °F | °C
As of 5:35 PM on Sunday 23 Nov 2014 (Local Time) from KSME Reporting Station
Light Rain Light Rain  
Wind Chill: 54°   Ceiling: 6500
Heat Index: 54°   Visibility: 10mi
Dew Point: 54°   Wind: 9mph
Humidity: 100%   Direction: 150°SSE
Pressure: 29.54"   Gusts: 16mph
Location:  37.0701°N, 84.793°W
Report Text: KSME 232235Z AUTO 15008G14KT 10SM -RA BKN065 OVC085 12/12 A2954 RMK AO2 P0004
Loading
Personal Weather Stations






























Interactive Weather Map New forecast layout! Learn more

10-Day Weather Forecast

Advertisements
Track Severe Weather on mobile